This is the latest recevied weather packets stored in our database for station/object EA5HRE-13. If no packets are shown the sender has not sent any weather packets the latest 10 day(s).
| Time | Temp. | Humidity | Pressure | Rain* | Wind** | Luminosity | Snow |
|---|---|---|---|---|---|---|---|
| 1788493216 | 23.89° C | 97% | 1020.9 hPa | 0 mm | - | - | - |
| 1788486009 | 24.44° C | 97% | 1021.4 hPa | 0 mm | - | - | - |
| 1788475197 | 24.44° C | 97% | 1021.9 hPa | 0 mm | - | - | - |
| 1788474296 | 25° C | 97% | 1021.9 hPa | 0 mm | - | - | - |
| 1788473396 | 25° C | 96% | 1021.8 hPa | 0 mm | - | - | - |
| 1788472479 | 25° C | 95% | 1021.7 hPa | 0 mm | - | - | - |
| 1788471579 | 25.56° C | 94% | 1021.3 hPa | 0 mm | - | - | - |
| 1788470678 | 25.56° C | 92% | 1021.2 hPa | 0 mm | - | - | - |
| 1788469777 | 26.11° C | 91% | 1021.1 hPa | 0 mm | - | - | - |
| 1788467074 | 26.67° C | 87% | 1020.8 hPa | 0 mm | - | - | - |
| 1788466173 | 26.67° C | 85% | 1020.7 hPa | 0 mm | - | - | - |
| 1788465273 | 26.67° C | 83% | 1020.5 hPa | 0 mm | - | - | - |
| 1788464372 | 27.22° C | 81% | 1020.2 hPa | 0 mm | - | - | - |
| 1788463470 | 27.22° C | 79% | 1019.9 hPa | 0 mm | - | - | - |
| 1788449957 | 31.11° C | 58% | 1020.3 hPa | 0 mm | - | - | - |
| 1788448155 | 31.67° C | 59% | 1020.7 hPa | 0 mm | - | - | - |
| 1788447255 | 31.67° C | 59% | 1020.8 hPa | 0 mm | - | - | - |
| 1788446354 | 31.67° C | 59% | 1020.9 hPa | 0 mm | - | - | - |
| 1788445453 | 31.67° C | 58% | 1020.9 hPa | 0 mm | - | - | - |
| 1788444553 | 31.67° C | 58% | 1021 hPa | 0 mm | - | - | - |
| 1788442750 | 31.67° C | 58% | 1021.3 hPa | 0 mm | - | - | - |
| 1788441849 | 31.67° C | 58% | 1021.5 hPa | 0 mm | - | - | - |
| 1788440948 | 31.67° C | 58% | 1021.6 hPa | 0 mm | - | - | - |
| 1788440048 | 31.67° C | 59% | 1021.6 hPa | 0 mm | - | - | - |
| 1788439146 | 31.11° C | 59% | 1021.7 hPa | 0 mm | - | - | - |
* Rain latest hour (hover to see other rain measurements)
** Current wind speed in m/s (hover to see current wind gust speed)